createdAt,value
2023-04-04T00:00:33.637Z,2.33
2023-04-04T00:01:36.222Z,2.40
2023-04-04T00:02:38.798Z,2.50
2023-04-04T00:03:42.010Z,1.88
2023-04-04T00:04:44.978Z,2.03
2023-04-04T00:05:47.993Z,1.92
2023-04-04T00:06:51.936Z,1.98
2023-04-04T00:07:55.088Z,2.55
2023-04-04T00:08:58.168Z,1.75
2023-04-04T00:10:00.954Z,2.17
2023-04-04T00:11:06.380Z,2.10
2023-04-04T00:12:08.853Z,2.13
2023-04-04T00:13:12.066Z,1.92
2023-04-04T00:14:14.534Z,2.38
2023-04-04T00:15:17.141Z,2.05
2023-04-04T00:16:19.606Z,1.92
2023-04-04T00:17:22.167Z,2.85
2023-04-04T00:18:24.645Z,2.50
2023-04-04T00:19:27.132Z,2.13
2023-04-04T00:20:30.827Z,1.90
2023-04-04T00:21:33.552Z,2.08
2023-04-04T00:22:35.954Z,1.92
2023-04-04T00:23:38.446Z,2.00
2023-04-04T00:24:40.893Z,2.20
2023-04-04T00:25:44.183Z,1.75
2023-04-04T00:26:46.691Z,2.22
2023-04-04T00:27:49.297Z,2.15
2023-04-04T00:28:51.889Z,2.47
2023-04-04T00:29:54.386Z,2.15
2023-04-04T00:30:57.070Z,2.72
2023-04-04T00:31:59.670Z,1.85
2023-04-04T00:33:02.489Z,1.80
2023-04-04T00:34:04.925Z,2.35
2023-04-04T00:35:08.557Z,2.30
2023-04-04T00:36:11.702Z,2.00
2023-04-04T00:37:14.183Z,2.67
2023-04-04T00:38:16.646Z,2.13
2023-04-04T00:39:19.126Z,2.20
2023-04-04T00:40:22.629Z,2.15
2023-04-04T00:41:25.323Z,2.80
2023-04-04T00:42:27.895Z,2.47
2023-04-04T00:43:30.453Z,1.90
2023-04-04T00:44:35.701Z,1.63
2023-04-04T00:45:38.276Z,2.10
2023-04-04T00:46:40.880Z,1.95
2023-04-04T00:47:44.418Z,1.73
2023-04-04T00:48:48.229Z,1.90
2023-04-04T00:50:07.473Z,1.83
2023-04-04T00:51:09.998Z,1.77
2023-04-04T00:52:12.451Z,2.28
2023-04-04T00:53:15.092Z,1.88
2023-04-04T00:54:17.765Z,1.60
2023-04-04T00:55:20.379Z,1.80
2023-04-04T00:56:23.539Z,2.20
2023-04-04T00:57:27.260Z,1.63
2023-04-04T00:58:30.100Z,1.92
2023-04-04T00:59:32.880Z,1.75
2023-04-04T01:00:36.406Z,3.35
2023-04-04T01:01:39.038Z,2.00
2023-04-04T01:02:41.955Z,2.33
2023-04-04T01:03:45.475Z,1.77
2023-04-04T01:04:48.858Z,2.08
2023-04-04T01:05:51.707Z,1.92
2023-04-04T01:06:54.350Z,2.38
2023-04-04T01:07:57.398Z,2.05
2023-04-04T01:09:00.199Z,2.08
2023-04-04T01:10:06.201Z,1.95
2023-04-04T01:11:09.428Z,2.00
2023-04-04T01:12:12.319Z,2.03
2023-04-04T01:13:16.105Z,2.15
2023-04-04T01:14:18.687Z,2.42
2023-04-04T01:15:21.476Z,1.75
2023-04-04T01:16:24.350Z,2.28
2023-04-04T01:17:27.865Z,2.13
2023-04-04T01:18:32.035Z,1.90
2023-04-04T01:19:38.217Z,1.63
2023-04-04T01:21:00.456Z,1.88
2023-04-04T01:22:04.274Z,1.60
2023-04-04T01:23:07.476Z,1.92
2023-04-04T01:24:12.587Z,1.90
2023-04-04T01:25:32.194Z,2.00
2023-04-04T01:26:39.561Z,2.38
2023-04-04T01:27:42.281Z,1.70
2023-04-04T01:28:48.726Z,1.85
2023-04-04T01:29:52.085Z,1.88
2023-04-04T01:30:56.370Z,1.80
2023-04-04T01:32:08.737Z,2.03
2023-04-04T01:33:21.326Z,2.20
2023-04-04T01:34:39.483Z,2.13
2023-04-04T01:35:53.734Z,2.05
2023-04-04T01:37:03.369Z,2.38
2023-04-04T01:38:32.738Z,2.10
2023-04-04T01:39:45.940Z,2.08
2023-04-04T01:40:52.817Z,1.80
2023-04-04T01:41:56.906Z,2.35
2023-04-04T01:42:59.567Z,2.28
2023-04-04T01:44:04.127Z,2.45
2023-04-04T01:45:08.167Z,3.40
2023-04-04T01:46:12.193Z,1.88
2023-04-04T01:47:14.863Z,1.95
2023-04-04T01:48:18.072Z,2.30
2023-04-04T01:49:24.283Z,2.00
2023-04-04T01:50:27.422Z,1.88
2023-04-04T01:51:31.134Z,2.20
2023-04-04T01:52:34.569Z,2.20
2023-04-04T01:53:37.512Z,2.35
2023-04-04T01:54:40.469Z,1.90
2023-04-04T01:55:43.013Z,2.33
2023-04-04T01:56:49.197Z,2.00
2023-04-04T01:57:52.253Z,2.03
2023-04-04T01:58:54.868Z,1.95
2023-04-04T01:59:57.431Z,2.08
2023-04-04T02:00:59.897Z,1.88
2023-04-04T02:02:02.683Z,1.90
2023-04-04T02:03:05.283Z,1.92
2023-04-04T02:04:08.670Z,2.53
2023-04-04T02:05:11.367Z,1.90
2023-04-04T02:06:14.494Z,1.85
2023-04-04T02:07:16.994Z,2.08
2023-04-04T02:08:19.798Z,2.70
2023-04-04T02:09:28.231Z,2.45
2023-04-04T02:10:32.004Z,2.35
2023-04-04T02:11:34.612Z,2.10
2023-04-04T02:12:37.109Z,2.33
2023-04-04T02:13:44.273Z,3.58
2023-04-04T02:14:49.585Z,2.70
2023-04-04T02:15:52.563Z,2.00
2023-04-04T02:16:55.884Z,2.85
2023-04-04T02:18:00.628Z,2.20
2023-04-04T02:19:04.449Z,2.65
2023-04-04T02:20:11.878Z,2.60
2023-04-04T02:21:14.415Z,2.40
2023-04-04T02:22:16.884Z,2.60
2023-04-04T02:23:19.314Z,2.47
2023-04-04T02:24:21.808Z,2.88
2023-04-04T02:25:25.623Z,2.67
2023-04-04T02:26:28.074Z,2.47
2023-04-04T02:27:30.533Z,2.25
2023-04-04T02:28:33.168Z,2.70
2023-04-04T02:29:35.638Z,2.75
2023-04-04T02:30:38.399Z,2.63
2023-04-04T02:31:41.576Z,3.10
2023-04-04T02:32:47.313Z,2.53
2023-04-04T02:33:53.124Z,2.50
2023-04-04T02:34:57.023Z,2.03
2023-04-04T02:35:59.903Z,2.55
2023-04-04T02:37:02.456Z,2.33
2023-04-04T02:38:05.472Z,2.45
2023-04-04T02:39:18.027Z,2.85
2023-04-04T02:40:20.484Z,2.60
2023-04-04T02:41:23.328Z,2.75
2023-04-04T02:42:25.832Z,2.65
2023-04-04T02:43:28.810Z,2.13
2023-04-04T02:44:31.875Z,2.03
2023-04-04T02:45:34.962Z,2.17
2023-04-04T02:46:54.984Z,2.50
2023-04-04T02:48:04.114Z,1.98
2023-04-04T02:49:15.516Z,1.58
2023-04-04T02:50:22.477Z,2.30
2023-04-04T02:51:31.201Z,2.22
2023-04-04T02:52:34.246Z,1.88
2023-04-04T02:53:42.649Z,2.78
2023-04-04T02:54:55.665Z,2.47
2023-04-04T02:56:07.835Z,2.00
2023-04-04T02:57:10.606Z,2.53
2023-04-04T02:58:13.214Z,2.38
2023-04-04T02:59:15.715Z,2.33
2023-04-04T03:00:18.522Z,2.13
2023-04-04T03:01:21.724Z,1.80
2023-04-04T03:02:25.147Z,1.67
2023-04-04T03:03:28.351Z,2.03
2023-04-04T03:04:31.270Z,3.20
2023-04-04T03:05:33.770Z,2.15
2023-04-04T03:06:37.758Z,2.35
2023-04-04T03:07:40.367Z,2.13
2023-04-04T03:08:43.942Z,1.85
2023-04-04T03:09:46.970Z,2.60
2023-04-04T03:10:49.822Z,2.38
2023-04-04T03:11:52.405Z,1.95
2023-04-04T03:12:55.171Z,2.28
2023-04-04T03:13:59.038Z,1.80
2023-04-04T03:15:08.949Z,1.60
2023-04-04T03:16:11.695Z,2.50
2023-04-04T03:17:22.290Z,1.70
2023-04-04T03:18:24.911Z,1.98
2023-04-04T03:19:27.532Z,1.67
2023-04-04T03:20:31.421Z,2.03
2023-04-04T03:21:33.934Z,2.10
2023-04-04T03:22:36.823Z,2.38
2023-04-04T03:23:39.526Z,1.95
2023-04-04T03:24:42.160Z,2.13
2023-04-04T03:25:44.767Z,2.60
2023-04-04T03:26:47.288Z,2.25
2023-04-04T03:27:49.958Z,2.28
2023-04-04T03:28:58.544Z,2.42
2023-04-04T03:30:02.428Z,1.75
2023-04-04T03:31:08.156Z,2.08
2023-04-04T03:32:14.652Z,2.58
2023-04-04T03:33:17.383Z,2.13
2023-04-04T03:34:20.615Z,2.08
2023-04-04T03:35:26.030Z,1.88
2023-04-04T03:36:31.134Z,2.67
2023-04-04T03:37:33.711Z,1.95
2023-04-04T03:38:37.130Z,1.63
2023-04-04T03:39:39.771Z,1.70
2023-04-04T03:40:44.123Z,2.17
2023-04-04T03:41:48.365Z,2.15
2023-04-04T03:42:51.522Z,2.08
2023-04-04T03:43:55.830Z,1.85
2023-04-04T03:44:59.988Z,2.15
2023-04-04T03:46:07.614Z,1.75
2023-04-04T03:47:10.215Z,2.00
2023-04-04T03:48:12.787Z,1.70
2023-04-04T03:49:16.345Z,2.92
2023-04-04T03:50:18.916Z,1.80
2023-04-04T03:51:29.754Z,1.92
2023-04-04T03:52:32.299Z,2.22
2023-04-04T03:53:36.618Z,2.72
2023-04-04T03:54:39.727Z,2.25
2023-04-04T03:55:42.566Z,2.33
2023-04-04T03:56:45.294Z,2.42
2023-04-04T03:57:47.929Z,1.90
2023-04-04T03:58:51.728Z,1.65
2023-04-04T03:59:57.260Z,2.50
2023-04-04T04:00:59.773Z,1.65
2023-04-04T04:02:05.538Z,2.40
2023-04-04T04:03:08.015Z,2.40
2023-04-04T04:04:10.579Z,2.10
2023-04-04T04:05:15.824Z,1.80
2023-04-04T04:06:18.313Z,2.10
2023-04-04T04:07:20.871Z,1.88
2023-04-04T04:08:26.370Z,1.88
2023-04-04T04:09:28.846Z,2.22
2023-04-04T04:10:31.628Z,2.30
2023-04-04T04:11:34.529Z,2.33
2023-04-04T04:12:37.355Z,2.33
2023-04-04T04:13:40.293Z,2.50
2023-04-04T04:14:43.274Z,1.98
2023-04-04T04:15:45.923Z,2.10
2023-04-04T04:16:53.553Z,2.20
2023-04-04T04:17:58.050Z,2.70
2023-04-04T04:19:03.505Z,3.33
2023-04-04T04:20:13.497Z,2.85
2023-04-04T04:21:23.435Z,2.90
2023-04-04T04:22:27.223Z,4.35
2023-04-04T04:23:30.558Z,3.15
2023-04-04T04:24:33.363Z,3.83
2023-04-04T04:25:39.130Z,4.47
2023-04-04T04:26:49.589Z,4.05
2023-04-04T04:27:56.810Z,3.67
2023-04-04T04:28:59.998Z,4.03
2023-04-04T04:30:06.356Z,3.90
2023-04-04T04:31:14.072Z,4.35
2023-04-04T04:32:20.048Z,3.78
2023-04-04T04:33:30.135Z,4.13
2023-04-04T04:34:35.656Z,3.17
2023-04-04T04:35:41.794Z,3.30
2023-04-04T04:36:44.972Z,3.65
2023-04-04T04:37:56.570Z,3.80
2023-04-04T04:38:59.084Z,3.75
2023-04-04T04:40:04.260Z,4.10
2023-04-04T04:41:13.415Z,4.25
2023-04-04T04:42:21.371Z,4.60
2023-04-04T04:43:28.811Z,4.05
2023-04-04T04:44:32.593Z,4.40
2023-04-04T04:45:35.263Z,4.40
2023-04-04T04:46:42.263Z,3.75
2023-04-04T04:47:49.883Z,3.75
2023-04-04T04:48:54.127Z,4.22
2023-04-04T04:50:01.542Z,4.32
2023-04-04T04:51:25.623Z,3.88
2023-04-04T04:52:31.717Z,5.75
2023-04-04T04:53:34.413Z,5.53
2023-04-04T04:54:36.860Z,4.78
2023-04-04T04:55:39.473Z,5.00
2023-04-04T04:56:45.037Z,5.05
2023-04-04T04:57:48.359Z,4.63
2023-04-04T04:58:58.270Z,4.43
2023-04-04T05:00:04.458Z,4.43
2023-04-04T05:01:07.626Z,3.88
2023-04-04T05:02:13.782Z,4.43
2023-04-04T05:03:22.099Z,3.78
2023-04-04T05:04:26.023Z,3.70
2023-04-04T05:06:43.300Z,3.22
2023-04-04T05:07:47.731Z,3.50
2023-04-04T05:08:50.157Z,4.50
2023-04-04T05:10:04.342Z,2.92
2023-04-04T05:11:07.139Z,3.33
2023-04-04T05:12:10.668Z,2.85
2023-04-04T05:13:17.199Z,3.10
2023-04-04T05:14:21.979Z,2.65
2023-04-04T05:15:31.551Z,2.90
2023-04-04T05:16:34.368Z,3.03
2023-04-04T05:17:38.755Z,2.72
2023-04-04T05:18:43.425Z,2.55
2023-04-04T05:19:47.181Z,3.13
2023-04-04T05:20:54.819Z,2.15
2023-04-04T05:21:59.800Z,2.60
2023-04-04T05:23:16.309Z,2.67
2023-04-04T05:24:18.866Z,2.83
2023-04-04T05:25:21.735Z,2.80
2023-04-04T05:26:25.070Z,2.58
2023-04-04T05:27:30.594Z,2.58
2023-04-04T05:28:35.964Z,1.95
2023-04-04T05:29:41.509Z,2.42
2023-04-04T05:30:44.827Z,2.70
2023-04-04T05:31:54.114Z,2.53
2023-04-04T05:32:58.598Z,3.13
2023-04-04T05:34:08.408Z,2.88
2023-04-04T05:35:12.328Z,2.70
2023-04-04T05:36:14.946Z,2.65
2023-04-04T05:37:26.171Z,2.50
2023-04-04T05:38:28.627Z,2.38
2023-04-04T05:39:31.484Z,2.22
2023-04-04T05:40:38.961Z,2.55
2023-04-04T05:41:45.934Z,3.33
2023-04-04T05:42:57.001Z,2.65
2023-04-04T05:45:07.212Z,2.13
2023-04-04T05:46:09.982Z,2.13
2023-04-04T05:47:17.844Z,2.58
2023-04-04T05:48:22.516Z,2.22
2023-04-04T05:49:27.867Z,2.67
2023-04-04T05:50:33.686Z,2.10
2023-04-04T05:51:39.492Z,2.28
2023-04-04T05:52:47.708Z,3.10
2023-04-04T05:53:50.349Z,2.30
2023-04-04T05:55:05.046Z,2.38
2023-04-04T05:56:08.774Z,2.45
2023-04-04T05:57:11.925Z,2.10
2023-04-04T05:58:18.591Z,2.10
2023-04-04T05:59:28.755Z,1.92
2023-04-04T06:00:36.064Z,2.88
2023-04-04T06:01:42.606Z,1.88
2023-04-04T06:02:49.910Z,2.08
2023-04-04T06:03:56.341Z,2.72
2023-04-04T06:05:01.677Z,1.73
2023-04-04T06:06:10.671Z,2.20
2023-04-04T06:07:13.339Z,1.85
2023-04-04T06:08:17.517Z,1.83
2023-04-04T06:09:20.462Z,2.03
2023-04-04T06:10:23.335Z,2.58
2023-04-04T06:11:27.487Z,2.53
2023-04-04T06:12:37.934Z,1.98
2023-04-04T06:13:44.336Z,1.90
2023-04-04T06:14:51.632Z,2.13
2023-04-04T06:15:57.057Z,1.88
2023-04-04T06:16:59.549Z,2.03
2023-04-04T06:18:02.215Z,2.08
2023-04-04T06:19:05.633Z,2.25
2023-04-04T06:20:08.732Z,2.60
2023-04-04T06:21:11.377Z,2.95
2023-04-04T06:22:17.805Z,1.95
2023-04-04T06:23:24.272Z,2.42
2023-04-04T06:24:27.370Z,2.97
2023-04-04T06:25:30.864Z,3.20
2023-04-04T06:26:34.575Z,2.42
2023-04-04T06:27:38.781Z,2.33
2023-04-04T06:28:52.059Z,2.20
2023-04-04T06:30:03.336Z,2.17
2023-04-04T06:31:07.027Z,2.67
2023-04-04T06:32:09.779Z,2.45
2023-04-04T06:33:16.326Z,1.95
2023-04-04T06:34:22.823Z,2.20
2023-04-04T06:35:29.848Z,2.45
2023-04-04T06:36:36.908Z,1.52
2023-04-04T06:37:40.551Z,1.77
2023-04-04T06:38:50.395Z,2.33
2023-04-04T06:39:56.161Z,1.55
2023-04-04T06:41:01.633Z,1.80
2023-04-04T06:42:04.745Z,1.85
2023-04-04T06:43:10.216Z,2.40
2023-04-04T06:44:15.565Z,1.73
2023-04-04T06:45:18.331Z,2.80
2023-04-04T06:46:21.227Z,2.10
2023-04-04T06:47:23.868Z,1.80
2023-04-04T06:48:26.426Z,1.83
2023-04-04T06:49:29.054Z,2.05
2023-04-04T06:50:34.590Z,2.35
2023-04-04T06:51:41.738Z,2.30
2023-04-04T06:52:44.848Z,2.22
2023-04-04T06:53:47.734Z,2.60
2023-04-04T06:54:50.945Z,2.20
2023-04-04T06:55:53.624Z,1.90
2023-04-04T06:56:57.289Z,1.83
2023-04-04T06:57:59.819Z,1.70
2023-04-04T06:59:03.620Z,2.08
2023-04-04T07:00:06.935Z,2.28
2023-04-04T07:01:09.524Z,1.90
2023-04-04T07:02:12.322Z,2.10
2023-04-04T07:03:15.099Z,1.67
2023-04-04T07:04:20.797Z,1.95
2023-04-04T07:05:23.504Z,1.95
2023-04-04T07:06:29.778Z,2.13
2023-04-04T07:07:32.615Z,2.17
2023-04-04T07:08:36.841Z,1.73
2023-04-04T07:09:39.661Z,1.75
2023-04-04T07:10:42.639Z,2.67
2023-04-04T07:11:45.799Z,2.17
2023-04-04T07:12:48.386Z,1.98
2023-04-04T07:13:50.914Z,2.10
2023-04-04T07:14:53.457Z,2.70
2023-04-04T07:15:56.305Z,2.42
2023-04-04T07:16:58.806Z,2.28
2023-04-04T07:18:02.185Z,2.47
2023-04-04T07:19:04.846Z,1.92
2023-04-04T07:20:08.242Z,2.45
2023-04-04T07:21:10.724Z,2.05
2023-04-04T07:22:13.323Z,2.45
2023-04-04T07:23:15.881Z,3.15
2023-04-04T07:24:18.432Z,2.70
2023-04-04T07:25:21.724Z,2.55
2023-04-04T07:26:24.316Z,1.98
2023-04-04T07:27:26.977Z,2.40
2023-04-04T07:28:29.517Z,2.17
2023-04-04T07:29:32.102Z,2.78
2023-04-04T07:30:34.618Z,2.22
2023-04-04T07:31:37.259Z,2.30
2023-04-04T07:32:39.781Z,2.28
2023-04-04T07:33:42.939Z,2.50
2023-04-04T07:34:47.181Z,2.33
2023-04-04T07:35:49.826Z,2.20
2023-04-04T07:36:53.902Z,2.60
2023-04-04T07:37:56.518Z,2.30
2023-04-04T07:38:59.163Z,1.98
2023-04-04T07:40:01.747Z,3.08
2023-04-04T07:41:04.553Z,2.22
2023-04-04T07:42:07.492Z,2.22
2023-04-04T07:43:09.991Z,2.75
2023-04-04T07:44:12.598Z,2.30
2023-04-04T07:45:15.086Z,2.25
2023-04-04T07:46:18.098Z,2.65
2023-04-04T07:47:21.503Z,2.83
2023-04-04T07:48:24.152Z,3.25
2023-04-04T07:49:26.805Z,2.13
2023-04-04T07:50:29.591Z,2.80
2023-04-04T07:51:32.080Z,2.20
2023-04-04T07:52:34.936Z,2.17
2023-04-04T07:53:37.700Z,2.10
2023-04-04T07:54:40.493Z,2.47
2023-04-04T07:55:43.069Z,2.33
2023-04-04T07:56:46.286Z,1.98
2023-04-04T07:57:48.754Z,2.10
2023-04-04T07:58:51.254Z,2.55
2023-04-04T07:59:53.804Z,2.00
2023-04-04T08:00:57.503Z,2.00
2023-04-04T08:02:00.118Z,2.22
2023-04-04T08:03:02.935Z,1.92
2023-04-04T08:04:05.747Z,2.38
2023-04-04T08:05:10.980Z,2.00
2023-04-04T08:06:13.675Z,2.17
2023-04-04T08:07:16.365Z,2.13
2023-04-04T08:08:18.765Z,2.15
2023-04-04T08:09:21.294Z,2.15
2023-04-04T08:10:23.693Z,2.15
2023-04-04T08:11:26.328Z,2.08
2023-04-04T08:12:29.328Z,2.05
2023-04-04T08:13:31.979Z,1.92
2023-04-04T08:14:34.670Z,2.42
2023-04-04T08:15:37.299Z,2.58
2023-04-04T08:16:39.965Z,1.98
2023-04-04T08:17:43.505Z,1.90
2023-04-04T08:18:46.132Z,1.80
2023-04-04T08:19:48.937Z,2.10
2023-04-04T08:20:51.731Z,2.22
2023-04-04T08:21:54.259Z,2.05
2023-04-04T08:22:57.600Z,1.77
2023-04-04T08:24:00.129Z,1.90
2023-04-04T08:25:03.316Z,2.13
2023-04-04T08:26:06.437Z,1.60
2023-04-04T08:27:08.827Z,1.77
2023-04-04T08:28:11.509Z,1.63
2023-04-04T08:29:14.074Z,1.55
2023-04-04T08:30:17.160Z,1.95
2023-04-04T08:31:19.704Z,1.80
2023-04-04T08:32:22.625Z,1.70
2023-04-04T08:33:34.212Z,1.52
2023-04-04T08:34:47.158Z,1.58
2023-04-04T08:35:50.552Z,1.35
2023-04-04T08:36:53.834Z,2.10
2023-04-04T08:37:57.420Z,1.65
2023-04-04T08:39:00.122Z,1.52
2023-04-04T08:40:04.148Z,1.60
2023-04-04T08:41:07.025Z,1.48
2023-04-04T08:42:12.084Z,1.85
2023-04-04T08:43:16.000Z,1.48
2023-04-04T08:44:22.323Z,1.42
2023-04-04T08:45:24.985Z,1.17
2023-04-04T08:46:28.027Z,1.40
2023-04-04T08:47:33.940Z,1.30
2023-04-04T08:48:36.868Z,1.30
2023-04-04T08:49:43.279Z,1.20
2023-04-04T08:50:46.960Z,1.50
2023-04-04T08:51:49.848Z,1.60
2023-04-04T08:52:53.101Z,1.45
2023-04-04T08:53:56.099Z,1.42
2023-04-04T08:54:58.870Z,1.42
2023-04-04T08:56:01.335Z,1.30
2023-04-04T08:57:04.480Z,1.50
2023-04-04T08:58:07.182Z,1.30
2023-04-04T08:59:11.560Z,1.40
2023-04-04T09:00:17.008Z,1.50
2023-04-04T09:01:19.818Z,1.20
2023-04-04T09:02:40.173Z,1.23
2023-04-04T09:03:43.383Z,1.45
2023-04-04T09:05:02.369Z,0.90
2023-04-04T09:06:08.474Z,1.17
2023-04-04T09:07:12.982Z,1.60
2023-04-04T09:08:17.137Z,1.45
2023-04-04T09:09:20.084Z,1.20
2023-04-04T09:10:23.463Z,0.98
2023-04-04T09:11:27.072Z,1.10
2023-04-04T09:12:31.332Z,1.13
2023-04-04T09:13:34.055Z,1.10
2023-04-04T09:14:38.803Z,1.30
2023-04-04T09:15:43.736Z,1.15
2023-04-04T09:16:46.392Z,1.05
2023-04-04T09:17:49.194Z,1.23
2023-04-04T09:18:52.930Z,1.10
2023-04-04T09:19:55.635Z,1.30
2023-04-04T09:20:58.264Z,1.10
2023-04-04T09:22:00.723Z,1.20
2023-04-04T09:23:16.697Z,0.88
2023-04-04T09:24:19.176Z,1.60
2023-04-04T09:25:23.269Z,1.33
2023-04-04T09:26:26.064Z,1.65
2023-04-04T09:27:28.630Z,1.55
2023-04-04T09:28:31.912Z,1.40
2023-04-04T09:29:34.730Z,1.35
2023-04-04T09:30:38.710Z,1.27
2023-04-04T09:31:46.529Z,1.25
2023-04-04T09:32:50.065Z,1.17
2023-04-04T09:33:52.622Z,1.30
2023-04-04T09:34:55.201Z,1.80
2023-04-04T09:36:11.679Z,1.75
2023-04-04T09:37:16.441Z,1.60
2023-04-04T09:38:19.846Z,1.30
2023-04-04T09:39:23.257Z,1.60
2023-04-04T09:40:28.006Z,1.17
2023-04-04T09:41:30.542Z,1.52
2023-04-04T09:42:33.391Z,1.27
2023-04-04T09:43:37.745Z,1.58
2023-04-04T09:44:40.299Z,1.48
2023-04-04T09:45:45.788Z,1.55
2023-04-04T09:46:52.124Z,1.20
2023-04-04T09:47:55.383Z,1.38
2023-04-04T09:49:00.953Z,1.38
2023-04-04T09:50:04.897Z,1.60
2023-04-04T09:51:09.369Z,1.55
2023-04-04T09:52:21.254Z,1.85
2023-04-04T09:53:23.768Z,1.35
2023-04-04T09:54:30.203Z,1.33
2023-04-04T09:55:35.188Z,1.80
2023-04-04T09:56:43.273Z,2.00
2023-04-04T09:57:47.566Z,1.48
2023-04-04T09:59:00.767Z,1.40
2023-04-04T10:00:09.121Z,1.27
2023-04-04T10:01:13.824Z,1.13
2023-04-04T10:02:16.584Z,1.20
2023-04-04T10:03:22.787Z,1.20
2023-04-04T10:04:27.216Z,1.42
2023-04-04T10:05:30.954Z,1.23
2023-04-04T10:06:33.425Z,1.38
2023-04-04T10:07:39.326Z,0.90
2023-04-04T10:08:43.177Z,1.42
2023-04-04T10:09:48.396Z,1.15
2023-04-04T10:12:11.503Z,2.10
2023-04-04T10:13:14.132Z,1.08
2023-04-04T10:14:17.087Z,1.45
2023-04-04T10:15:19.967Z,1.67
2023-04-04T10:16:24.768Z,1.20
2023-04-04T10:17:46.240Z,1.67
2023-04-04T10:18:49.125Z,2.38
2023-04-04T10:19:53.112Z,2.03
2023-04-04T10:21:04.704Z,1.77
2023-04-04T10:22:17.528Z,1.80
2023-04-04T10:23:21.136Z,1.60
2023-04-04T10:24:23.744Z,1.50
2023-04-04T10:25:26.592Z,0.95
2023-04-04T10:26:29.359Z,1.35
2023-04-04T10:27:32.940Z,1.50
2023-04-04T10:28:35.649Z,1.48
2023-04-04T10:29:38.126Z,1.02
2023-04-04T10:30:55.773Z,0.90
2023-04-04T10:32:07.146Z,1.02
2023-04-04T10:33:29.947Z,0.88
2023-04-04T10:34:50.394Z,1.50
2023-04-04T10:35:55.032Z,1.08
2023-04-04T10:37:10.755Z,1.27
2023-04-04T10:38:14.883Z,1.27
2023-04-04T10:39:42.843Z,1.30
2023-04-04T10:40:46.979Z,1.10
2023-04-04T10:41:51.776Z,0.95
2023-04-04T10:42:55.707Z,1.50
2023-04-04T10:44:01.418Z,1.60
2023-04-04T10:45:19.440Z,1.33
2023-04-04T10:46:30.916Z,1.15
2023-04-04T10:47:34.003Z,1.67
2023-04-04T10:48:37.045Z,1.83
2023-04-04T10:49:41.249Z,1.30
2023-04-04T10:50:43.962Z,1.27
2023-04-04T10:51:55.884Z,1.08
2023-04-04T10:53:01.178Z,1.20
2023-04-04T10:54:04.000Z,1.30
2023-04-04T10:55:09.216Z,1.90
2023-04-04T10:56:12.226Z,1.70
2023-04-04T10:57:15.209Z,1.75
2023-04-04T10:58:17.836Z,1.42
2023-04-04T10:59:20.645Z,1.55
2023-04-04T11:00:24.404Z,1.83
2023-04-04T11:01:47.429Z,1.55
2023-04-04T11:02:53.072Z,1.33
2023-04-04T11:04:21.198Z,1.48
2023-04-04T11:05:59.278Z,1.20
2023-04-04T11:07:08.178Z,1.15
2023-04-04T11:08:14.469Z,1.92
2023-04-04T11:09:46.418Z,1.88
2023-04-04T11:10:50.534Z,2.03
2023-04-04T11:12:08.910Z,1.70
2023-04-04T11:13:16.313Z,1.25
2023-04-04T11:14:29.878Z,1.40
2023-04-04T11:15:58.188Z,1.10
2023-04-04T11:17:00.916Z,1.30
2023-04-04T11:18:21.433Z,1.35
2023-04-04T11:19:30.545Z,1.80
2023-04-04T11:20:35.088Z,2.20
2023-04-04T11:21:39.310Z,2.03
2023-04-04T11:22:42.844Z,1.80
2023-04-04T11:23:48.730Z,2.00
2023-04-04T11:25:00.254Z,1.50
2023-04-04T11:26:03.639Z,1.70
2023-04-04T11:27:08.015Z,1.48
2023-04-04T11:28:15.599Z,1.10
2023-04-04T11:29:23.030Z,1.85
2023-04-04T11:30:26.545Z,1.33
2023-04-04T11:31:32.864Z,1.60
2023-04-04T11:32:59.790Z,1.40
2023-04-04T11:34:09.289Z,1.77
2023-04-04T11:35:11.796Z,1.23
2023-04-04T11:36:24.938Z,1.40
2023-04-04T11:37:32.836Z,2.17
2023-04-04T11:38:35.526Z,1.75
2023-04-04T11:39:50.683Z,2.00
2023-04-04T11:40:57.893Z,2.38
2023-04-04T11:42:10.253Z,2.03
2023-04-04T11:43:13.575Z,2.03
2023-04-04T11:44:16.284Z,2.05
2023-04-04T11:45:19.921Z,2.00
2023-04-04T11:46:22.592Z,2.10
2023-04-04T11:47:25.651Z,1.75
2023-04-04T11:48:28.515Z,1.88
2023-04-04T11:49:32.230Z,1.55
2023-04-04T11:50:36.207Z,1.50
2023-04-04T11:51:42.059Z,1.23
2023-04-04T11:52:44.756Z,1.73
2023-04-04T11:53:48.179Z,1.40
2023-04-04T11:54:50.839Z,1.23
2023-04-04T11:55:53.707Z,1.05
2023-04-04T11:56:56.139Z,1.85
2023-04-04T11:58:06.811Z,1.60
2023-04-04T11:59:11.574Z,1.63
2023-04-04T12:00:39.384Z,1.95
2023-04-04T12:01:42.129Z,1.77
2023-04-04T12:02:45.954Z,1.98
2023-04-04T12:03:49.118Z,3.80
2023-04-04T12:04:52.307Z,3.15
2023-04-04T12:05:54.886Z,2.95
2023-04-04T12:06:57.800Z,2.22
2023-04-04T12:08:02.430Z,2.60
2023-04-04T12:09:06.152Z,3.10
2023-04-04T12:10:09.107Z,3.05
2023-04-04T12:11:15.882Z,2.30
2023-04-04T12:12:18.373Z,2.40
2023-04-04T12:13:20.899Z,2.13
2023-04-04T12:14:24.301Z,1.88
2023-04-04T12:15:30.016Z,2.05
2023-04-04T12:16:32.748Z,1.75
2023-04-04T12:17:40.225Z,2.00
2023-04-04T12:18:42.746Z,2.05
2023-04-04T12:19:45.232Z,2.70
2023-04-04T12:20:54.260Z,3.78
2023-04-04T12:21:57.950Z,2.60
2023-04-04T12:23:00.420Z,1.52
2023-04-04T12:24:03.589Z,1.73
2023-04-04T12:25:06.489Z,1.70
2023-04-04T12:26:09.620Z,1.83
2023-04-04T12:27:12.481Z,1.77
2023-04-04T12:28:15.017Z,2.20
2023-04-04T12:29:18.947Z,2.35
2023-04-04T12:30:21.850Z,2.28
2023-04-04T12:31:27.700Z,2.30
2023-04-04T12:32:31.004Z,2.25
2023-04-04T12:33:36.848Z,2.33
2023-04-04T12:34:47.045Z,2.05
2023-04-04T12:35:53.551Z,2.53
2023-04-04T12:36:57.890Z,2.45
2023-04-04T12:38:07.565Z,2.95
2023-04-04T12:39:14.118Z,1.40
2023-04-04T12:40:17.041Z,2.42
2023-04-04T12:41:20.016Z,2.33
2023-04-04T12:42:23.727Z,1.52
2023-04-04T12:43:34.260Z,2.58
2023-04-04T12:44:39.501Z,2.20
2023-04-04T12:45:43.157Z,2.05
2023-04-04T12:46:47.736Z,2.28
2023-04-04T12:47:54.685Z,1.92
2023-04-04T12:48:57.681Z,2.13
2023-04-04T12:50:00.681Z,2.00
2023-04-04T12:51:05.128Z,2.88
2023-04-04T12:52:16.594Z,2.45
2023-04-04T12:54:30.583Z,2.55
2023-04-04T12:55:33.305Z,2.58
2023-04-04T12:56:37.182Z,2.00
2023-04-04T12:57:40.530Z,1.80
2023-04-04T12:58:48.342Z,1.95
2023-04-04T12:59:51.285Z,2.20
2023-04-04T13:00:55.359Z,2.58
2023-04-04T13:01:58.376Z,2.25
2023-04-04T13:03:01.072Z,2.30
2023-04-04T13:04:06.697Z,2.45
2023-04-04T13:05:11.142Z,2.50
2023-04-04T13:06:16.570Z,2.20
2023-04-04T13:07:27.587Z,2.20
2023-04-04T13:08:30.273Z,2.20
2023-04-04T13:09:33.462Z,2.30
2023-04-04T13:10:57.736Z,2.58
2023-04-04T13:12:02.509Z,4.15
2023-04-04T13:13:05.992Z,4.38
2023-04-04T13:14:08.929Z,3.15
2023-04-04T13:15:13.541Z,2.47
2023-04-04T13:16:31.290Z,1.88
2023-04-04T13:17:44.507Z,2.55
2023-04-04T13:18:48.423Z,2.25
2023-04-04T13:19:51.869Z,2.58
2023-04-04T13:20:55.469Z,2.10
2023-04-04T13:21:58.429Z,2.15
2023-04-04T13:23:01.102Z,1.92
2023-04-04T13:24:04.098Z,2.63
2023-04-04T13:25:08.312Z,2.40
2023-04-04T13:26:11.408Z,2.40
2023-04-04T13:27:13.908Z,2.30
2023-04-04T13:28:16.544Z,2.20
2023-04-04T13:29:19.388Z,2.30
2023-04-04T13:30:22.143Z,2.47
2023-04-04T13:31:24.753Z,2.20
2023-04-04T13:32:28.628Z,2.00
2023-04-04T13:33:32.161Z,1.95
2023-04-04T13:34:36.250Z,1.98
2023-04-04T13:35:39.087Z,1.90
2023-04-04T13:36:41.891Z,1.80
2023-04-04T13:37:44.379Z,1.80
2023-04-04T13:38:46.885Z,1.40
2023-04-04T13:39:49.471Z,1.73
2023-04-04T13:40:52.392Z,2.33
2023-04-04T13:41:55.055Z,2.17
2023-04-04T13:42:57.511Z,2.65
2023-04-04T13:44:00.321Z,2.72
2023-04-04T13:45:02.938Z,3.17
2023-04-04T13:46:05.667Z,2.75
2023-04-04T13:47:08.261Z,2.72
2023-04-04T13:48:13.995Z,2.85
2023-04-04T13:49:16.482Z,3.10
2023-04-04T13:50:19.036Z,2.67
2023-04-04T13:51:21.585Z,2.45
2023-04-04T13:52:24.062Z,2.35
2023-04-04T13:53:26.641Z,2.33
2023-04-04T13:54:29.186Z,1.85
2023-04-04T13:55:33.316Z,2.20
2023-04-04T13:56:35.800Z,2.42
2023-04-04T13:57:38.483Z,2.10
2023-04-04T13:58:41.154Z,3.00
2023-04-04T13:59:43.707Z,2.38
2023-04-04T14:00:48.028Z,3.20
2023-04-04T14:01:50.519Z,4.38
2023-04-04T14:02:54.951Z,4.15
2023-04-04T14:04:01.931Z,4.32
2023-04-04T14:05:06.787Z,2.95
2023-04-04T14:07:32.013Z,1.75
2023-04-04T14:08:34.973Z,1.77
2023-04-04T14:09:37.772Z,2.05
2023-04-04T14:10:40.513Z,1.80
2023-04-04T14:11:43.631Z,1.38
2023-04-04T14:12:46.328Z,1.35
2023-04-04T14:13:49.005Z,1.58
2023-04-04T14:14:51.659Z,2.00
2023-04-04T14:15:54.402Z,1.80
2023-04-04T14:16:56.897Z,1.60
2023-04-04T14:17:59.854Z,1.70
2023-04-04T14:19:02.419Z,2.08
2023-04-04T14:20:05.519Z,2.53
2023-04-04T14:21:08.032Z,1.98
2023-04-04T14:22:10.528Z,3.10
2023-04-04T14:23:13.031Z,2.42
2023-04-04T14:24:15.621Z,1.90
2023-04-04T14:25:18.156Z,2.58
2023-04-04T14:26:21.012Z,3.30
2023-04-04T14:27:23.472Z,3.45
2023-04-04T14:28:26.598Z,3.50
2023-04-04T14:29:29.169Z,3.03
2023-04-04T14:30:31.734Z,4.32